createdAt,value
2023-01-08T00:02:23.664Z,3.70
2023-01-08T00:07:25.372Z,4.00
2023-01-08T00:12:27.169Z,4.43
2023-01-08T00:17:28.924Z,4.97
2023-01-08T00:22:31.080Z,4.10
2023-01-08T00:27:32.846Z,4.43
2023-01-08T00:32:34.777Z,3.80
2023-01-08T00:37:36.504Z,4.10
2023-01-08T00:42:38.303Z,4.17
2023-01-08T00:47:40.069Z,3.83
2023-01-08T00:52:41.770Z,3.77
2023-01-08T00:57:44.348Z,4.30
2023-01-08T01:02:46.337Z,3.80
2023-01-08T01:07:48.301Z,4.27
2023-01-08T01:12:50.803Z,4.10
2023-01-08T01:17:53.639Z,4.00
2023-01-08T01:22:55.348Z,5.30
2023-01-08T01:27:57.070Z,3.80
2023-01-08T01:32:58.792Z,4.90
2023-01-08T01:38:00.516Z,4.60
2023-01-08T01:43:02.256Z,4.57
2023-01-08T01:48:13.840Z,4.73
2023-01-08T01:53:35.061Z,5.37
2023-01-08T01:58:37.014Z,4.83
2023-01-08T02:03:40.565Z,4.87
2023-01-08T02:09:17.566Z,5.37
2023-01-08T02:15:00.290Z,5.33
2023-01-08T02:20:42.353Z,5.27
2023-01-08T02:26:37.029Z,5.27
2023-01-08T02:31:43.371Z,6.27
2023-01-08T02:36:57.041Z,6.10
2023-01-08T02:42:28.354Z,6.23
2023-01-08T02:47:42.430Z,6.37
2023-01-08T02:53:13.174Z,5.60
2023-01-08T02:58:16.826Z,6.30
2023-01-08T03:03:29.376Z,5.93
2023-01-08T03:08:38.346Z,6.70
2023-01-08T03:14:14.641Z,5.93
2023-01-08T03:19:35.920Z,6.10
2023-01-08T03:24:41.177Z,6.00
2023-01-08T03:29:46.202Z,7.20
2023-01-08T03:34:51.081Z,7.20
2023-01-08T03:40:22.787Z,7.40
2023-01-08T03:45:27.732Z,6.60
2023-01-08T03:50:32.255Z,7.00
2023-01-08T03:55:34.001Z,6.30
2023-01-08T04:00:35.844Z,7.00
2023-01-08T04:05:37.538Z,6.97
2023-01-08T04:10:39.273Z,6.80
2023-01-08T04:15:41.033Z,6.47
2023-01-08T04:20:47.431Z,6.43
2023-01-08T04:25:49.146Z,6.90
2023-01-08T04:30:51.712Z,7.00
2023-01-08T04:35:53.476Z,7.77
2023-01-08T04:41:03.051Z,7.30
2023-01-08T04:46:07.747Z,7.10
2023-01-08T04:51:09.631Z,7.37
2023-01-08T04:56:11.984Z,6.33
2023-01-08T05:01:24.759Z,7.07
2023-01-08T05:06:30.165Z,6.80
2023-01-08T05:11:31.936Z,6.90
2023-01-08T05:16:33.668Z,7.40
2023-01-08T05:21:36.011Z,7.03
2023-01-08T05:26:37.798Z,7.20
2023-01-08T05:31:39.526Z,6.97
2023-01-08T05:36:41.419Z,6.57
2023-01-08T05:41:43.137Z,6.43
2023-01-08T05:46:44.919Z,6.20
2023-01-08T05:51:46.675Z,6.60
2023-01-08T05:56:48.503Z,6.23
2023-01-08T06:01:50.291Z,6.37
2023-01-08T06:06:52.045Z,5.63
2023-01-08T06:11:53.835Z,5.30
2023-01-08T06:16:55.608Z,5.63
2023-01-08T06:21:57.424Z,5.47
2023-01-08T06:26:59.182Z,6.00
2023-01-08T06:32:01.002Z,5.33
2023-01-08T06:37:02.806Z,5.57
2023-01-08T06:42:04.670Z,5.63
2023-01-08T06:47:06.484Z,4.50
2023-01-08T06:52:08.210Z,5.90
2023-01-08T06:57:09.947Z,5.40
2023-01-08T07:02:17.563Z,5.60
2023-01-08T07:07:19.404Z,4.97
2023-01-08T07:12:21.265Z,4.90
2023-01-08T07:17:22.991Z,4.37
2023-01-08T07:22:25.825Z,5.40
2023-01-08T07:27:27.611Z,4.43
2023-01-08T07:32:29.344Z,5.30
2023-01-08T07:37:31.135Z,5.20
2023-01-08T07:42:32.867Z,5.33
2023-01-08T07:47:34.621Z,4.43
2023-01-08T07:52:36.317Z,4.90
2023-01-08T07:57:37.986Z,5.40
2023-01-08T08:02:39.875Z,5.37
2023-01-08T08:07:41.698Z,5.90
2023-01-08T08:12:45.769Z,6.30
2023-01-08T08:17:49.001Z,4.23
2023-01-08T08:22:50.800Z,4.50
2023-01-08T08:27:52.537Z,5.30
2023-01-08T08:32:55.707Z,5.50
2023-01-08T08:37:58.188Z,5.40
2023-01-08T08:43:03.747Z,6.17
2023-01-08T08:48:08.168Z,5.90
2023-01-08T08:53:10.639Z,5.97
2023-01-08T08:58:14.143Z,5.83
2023-01-08T09:03:16.670Z,6.03
2023-01-08T09:08:18.437Z,5.53
2023-01-08T09:13:20.443Z,5.70
2023-01-08T09:18:22.140Z,5.67
2023-01-08T09:23:23.848Z,5.33
2023-01-08T09:28:25.686Z,4.67
2023-01-08T09:33:27.453Z,4.87
2023-01-08T09:38:30.229Z,6.30
2023-01-08T09:43:37.646Z,5.80
2023-01-08T09:48:42.470Z,5.10
2023-01-08T09:53:46.343Z,5.20
2023-01-08T09:59:01.728Z,5.00
2023-01-08T10:04:29.333Z,5.30
2023-01-08T10:09:32.998Z,5.00
2023-01-08T10:14:39.699Z,4.80
2023-01-08T10:19:41.551Z,4.83
2023-01-08T10:24:43.979Z,4.33
2023-01-08T10:29:46.400Z,5.00
2023-01-08T10:34:53.238Z,4.90
2023-01-08T10:40:17.468Z,5.00
2023-01-08T10:45:26.029Z,5.23
2023-01-08T10:50:34.946Z,5.57
2023-01-08T10:55:38.520Z,4.93
2023-01-08T11:00:40.434Z,4.87
2023-01-08T11:05:43.075Z,5.50
2023-01-08T11:10:59.526Z,6.30
2023-01-08T11:16:10.780Z,7.60
2023-01-08T11:21:31.669Z,7.83
2023-01-08T11:26:37.601Z,7.07
2023-01-08T11:31:43.574Z,6.80
2023-01-08T11:36:59.145Z,6.00
2023-01-08T11:42:19.399Z,6.60
2023-01-08T11:48:33.664Z,3.50
2023-01-08T11:54:24.951Z,5.70
2023-01-08T12:00:33.238Z,6.30
2023-01-08T12:06:15.645Z,6.17
2023-01-08T12:11:40.765Z,5.50
2023-01-08T12:17:34.551Z,5.10
2023-01-08T12:23:11.520Z,4.73
2023-01-08T12:28:49.547Z,4.70
2023-01-08T12:34:05.856Z,5.87
2023-01-08T12:39:40.963Z,5.10
2023-01-08T12:44:46.635Z,4.67
2023-01-08T12:50:10.861Z,6.57
2023-01-08T12:55:34.292Z,5.73
2023-01-08T13:01:00.041Z,6.10
2023-01-08T13:06:18.077Z,5.90
2023-01-08T13:11:34.793Z,5.90
2023-01-08T13:16:42.473Z,5.37
2023-01-08T13:21:59.663Z,5.93
2023-01-08T13:27:16.896Z,5.57
2023-01-08T13:32:47.041Z,6.77
2023-01-08T13:38:11.571Z,6.20
2023-01-08T13:43:40.254Z,6.20
2023-01-08T13:49:09.928Z,6.77
2023-01-08T13:54:17.330Z,6.83
2023-01-08T13:59:49.177Z,8.63
2023-01-08T14:04:52.913Z,7.33
2023-01-08T14:10:09.172Z,8.50
2023-01-08T14:15:24.968Z,7.70
2023-01-08T14:20:44.807Z,8.60
2023-01-08T14:25:50.995Z,8.87
2023-01-08T14:30:57.048Z,8.20
2023-01-08T14:36:02.255Z,8.10
2023-01-08T14:41:11.089Z,9.00
2023-01-08T14:46:26.425Z,8.93
2023-01-08T14:51:31.857Z,8.80
2023-01-08T14:56:36.153Z,8.63
2023-01-08T15:01:38.480Z,8.33
2023-01-08T15:06:41.981Z,9.60
2023-01-08T15:12:06.365Z,8.77
2023-01-08T15:17:19.153Z,8.00
2023-01-08T15:22:27.280Z,10.03
2023-01-08T15:27:34.367Z,9.53
2023-01-08T15:32:38.861Z,8.27
2023-01-08T15:37:41.966Z,9.90
2023-01-08T15:43:02.509Z,8.90
2023-01-08T15:48:05.545Z,12.00
2023-01-08T15:53:24.549Z,10.40
2023-01-08T15:58:26.360Z,10.30
2023-01-08T16:03:30.338Z,9.90
2023-01-08T16:08:32.024Z,14.00
2023-01-08T16:13:33.769Z,11.93
2023-01-08T16:18:37.965Z,10.97
2023-01-08T16:23:41.254Z,10.30
2023-01-08T16:28:43.206Z,9.43
2023-01-08T16:33:45.447Z,9.30
2023-01-08T16:38:48.747Z,9.83
2023-01-08T16:43:50.540Z,11.47
2023-01-08T16:48:52.599Z,10.43
2023-01-08T16:53:54.505Z,10.10
2023-01-08T16:58:56.338Z,9.27
2023-01-08T17:04:00.406Z,9.63
2023-01-08T17:09:02.759Z,8.47
2023-01-08T17:14:04.592Z,9.43
2023-01-08T17:19:06.390Z,9.87
2023-01-08T17:24:08.829Z,13.47
2023-01-08T17:29:11.224Z,8.37
2023-01-08T17:34:14.078Z,9.10
2023-01-08T17:39:15.866Z,10.60
2023-01-08T17:44:17.666Z,8.60
2023-01-08T17:49:20.243Z,8.67
2023-01-08T17:54:24.090Z,9.40
2023-01-08T17:59:25.814Z,8.80
2023-01-08T18:04:27.672Z,8.23
2023-01-08T18:09:29.424Z,8.53
2023-01-08T18:14:31.197Z,7.47
2023-01-08T18:19:37.118Z,8.83
2023-01-08T18:24:39.118Z,8.60
2023-01-08T18:29:40.888Z,7.83
2023-01-08T18:34:43.171Z,7.03
2023-01-08T18:39:44.942Z,7.93
2023-01-08T18:44:46.714Z,7.37
2023-01-08T18:49:48.514Z,7.27
2023-01-08T18:54:50.410Z,7.40
2023-01-08T18:59:52.205Z,7.13
2023-01-08T19:04:54.015Z,7.10
2023-01-08T19:09:56.915Z,6.27
2023-01-08T19:14:58.978Z,7.27
2023-01-08T19:20:00.792Z,6.43
2023-01-08T19:25:02.592Z,7.10
2023-01-08T19:30:05.373Z,6.73
2023-01-08T19:35:07.628Z,6.73
2023-01-08T19:40:12.776Z,6.20
2023-01-08T19:45:15.472Z,6.67
2023-01-08T19:50:17.707Z,7.83
2023-01-08T19:55:22.037Z,6.30
2023-01-08T20:00:23.821Z,6.77
2023-01-08T20:05:25.566Z,7.00
2023-01-08T20:10:27.433Z,7.57
2023-01-08T20:15:29.262Z,6.87
2023-01-08T20:20:31.252Z,7.27
2023-01-08T20:25:34.511Z,7.63
2023-01-08T20:30:36.288Z,6.93
2023-01-08T20:35:38.375Z,7.40
2023-01-08T20:40:40.213Z,7.17
2023-01-08T20:45:42.056Z,7.37
2023-01-08T20:50:46.886Z,7.43
2023-01-08T20:55:49.059Z,8.40
2023-01-08T21:00:50.895Z,8.07
2023-01-08T21:05:52.944Z,7.47
2023-01-08T21:11:05.741Z,7.90
2023-01-08T21:16:28.281Z,7.07
2023-01-08T21:21:38.984Z,8.37
2023-01-08T21:26:41.561Z,7.80
2023-01-08T21:31:43.524Z,8.27
2023-01-08T21:36:45.376Z,8.10
2023-01-08T21:42:05.514Z,8.40
2023-01-08T21:47:16.591Z,7.73
2023-01-08T21:52:36.726Z,7.57
2023-01-08T21:57:39.965Z,7.70
2023-01-08T22:02:42.870Z,7.50
2023-01-08T22:07:44.586Z,6.73
2023-01-08T22:12:46.381Z,7.70
2023-01-08T22:17:49.343Z,7.23
2023-01-08T22:22:51.550Z,7.10
2023-01-08T22:27:59.294Z,6.83
2023-01-08T22:33:01.083Z,7.77
2023-01-08T22:38:02.964Z,6.90
2023-01-08T22:43:05.349Z,7.07
2023-01-08T22:48:08.010Z,6.67
2023-01-08T22:53:09.853Z,7.07
2023-01-08T22:58:14.026Z,7.70
2023-01-08T23:03:16.232Z,6.13
2023-01-08T23:08:19.082Z,6.57
2023-01-08T23:13:21.091Z,6.83
2023-01-08T23:18:22.812Z,6.70
2023-01-08T23:23:24.485Z,6.30
2023-01-08T23:28:26.207Z,6.67
2023-01-08T23:33:27.992Z,6.30
2023-01-08T23:38:29.875Z,6.90
2023-01-08T23:43:31.623Z,6.57
2023-01-08T23:48:34.051Z,6.17
2023-01-08T23:53:35.852Z,6.60
2023-01-08T23:58:37.936Z,6.30
